Main page
METAR-TAF:

METAR-TAF

Airports :

Ghedi Air Base

Brescia Ghedi, Italy

latitude: 45-25N, longitude: 010-17E, elevation: 102 m

Current weather observation

The report was made 1 hour and 2 minutes ago, at 19:55 UTC
Wind 1 kt from the West
Temperature 11°C
Humidity 66%
Pressure 1013 hPa
Visibility 10 km or more
no clouds below 1500 m and no cumulonimbus

METAR: LIPL 281955Z 27001KT CAVOK 11/05 Q1013 RMK SCT SCT120 VIS MIN 9999 WIND THR31 31001KT WIND THR13 30001KT BLU

Time: 21:57 (20:57 UTC)

Forecast

The report was made 12 hours and 57 minutes ago, at 08:00 UTC
Forecast valid from 28 at 09 UTC to 28 at 18 UTC
Wind 5 kt from variable directions
Visibility 10 km or more
Few clouds at a height of 4000 ft

TAF: LIPL 280800Z 2809/2818 VRB05KT 9999 FEW040

Weather observations and forecasts of more than 4000 airports (METAR and TAF reports).

The available stations are represented by yellow and red dots on the map.

Hover mouse over dot to see the name of the station.

Then click to see weather observations and forecasts.

To change the map : click on the green buttons with a black cross to zoom in, on the green button with a dash to zoom out, or on the green arrows for adjacent maps.


METAR-TAF: